Time;durP1;ratioP1;P1;durP2;ratioP2;P2;SDS_P1;SDS_P2;PMS_P1;PMS_P2;Temp;Humidity;BMP_temperature;BMP_pressure;BME280_temperature;BME280_humidity;BME280_pressure;Samples;Min_cycle;Max_cycle;Signal;HPM_P1;HPM_P2
2022/04/13 00:01:59;;;;;;;13.45;4.72;;;;;;;13.73;82.52;101173.53;4948577;29;20035;-82
2022/04/13 00:04:25;;;;;;;12.30;4.55;;;;;;;13.73;82.34;101177.97;4951891;28;20031;-82
2022/04/13 00:06:50;;;;;;;15.93;5.13;;;;;;;13.72;82.25;101177.13;4924941;29;20040;-82
2022/04/13 00:09:16;;;;;;;14.57;4.47;;;;;;;13.70;82.58;101176.31;4930310;29;20051;-82
2022/04/13 00:11:41;;;;;;;10.20;5.03;;;;;;;13.66;82.63;101188.06;4933244;29;20103;-81
2022/04/13 00:14:07;;;;;;;10.07;4.78;;;;;;;13.61;82.74;101179.47;4900625;29;20044;-82
2022/04/13 00:16:32;;;;;;;14.32;5.00;;;;;;;13.53;83.14;101181.66;4897412;29;20119;-83
2022/04/13 00:18:58;;;;;;;16.73;5.05;;;;;;;13.46;83.50;101175.81;4930901;29;20035;-83
2022/04/13 00:21:23;;;;;;;10.93;4.63;;;;;;;13.39;83.61;101169.94;4931769;29;20050;-82
2022/04/13 00:23:48;;;;;;;10.32;4.72;;;;;;;13.32;84.25;101176.47;4931832;29;20122;-83
2022/04/13 00:26:14;;;;;;;14.60;5.18;;;;;;;13.24;84.49;101179.53;4915458;29;20040;-82
2022/04/13 00:28:39;;;;;;;24.85;5.28;;;;;;;13.19;85.29;101172.72;4930605;29;20043;-81
2022/04/13 00:31:05;;;;;;;14.35;5.13;;;;;;;13.13;85.26;101175.69;4898667;29;20027;-82
2022/04/13 00:33:32;;;;;;;12.63;4.97;;;;;;;13.10;85.69;101172.25;4916273;29;20035;-82
2022/04/13 00:35:57;;;;;;;13.25;5.22;;;;;;;13.10;85.93;101174.91;4892659;29;20028;-83
2022/04/13 00:38:23;;;;;;;14.32;5.47;;;;;;;13.11;86.44;101175.78;4916264;29;20042;-82
2022/04/13 00:40:49;;;;;;;16.20;6.00;;;;;;;13.16;86.14;101183.50;4928896;29;20054;-81
2022/04/13 00:43:15;;;;;;;15.23;5.35;;;;;;;13.20;86.20;101182.44;4915880;29;20039;-81
2022/04/13 00:45:48;;;;;;;20.60;6.07;;;;;;;13.20;85.99;101183.28;4924166;29;20036;-81
2022/04/13 00:48:32;;;;;;;11.82;5.63;;;;;;;13.24;85.90;101179.53;4926814;29;20040;-81
2022/04/13 00:50:58;;;;;;;14.63;6.55;;;;;;;13.27;85.88;101192.69;4928676;29;20471;-83
2022/04/13 00:53:24;;;;;;;18.67;5.60;;;;;;;13.26;85.86;101198.06;4931356;29;20098;-81
2022/04/13 00:55:53;;;;;;;15.60;6.25;;;;;;;13.23;85.95;101192.91;4911216;29;20060;-81
2022/04/13 00:58:22;;;;;;;13.90;5.43;;;;;;;13.23;86.48;101199.06;4911689;29;20036;-81
2022/04/13 01:00:49;;;;;;;18.42;6.53;;;;;;;13.21;86.42;101189.44;4931757;29;20038;-83
2022/04/13 01:03:19;;;;;;;15.48;6.13;;;;;;;13.21;86.77;101197.44;4913745;29;20028;-81
2022/04/13 01:05:47;;;;;;;14.82;6.18;;;;;;;13.20;86.75;101190.41;4929456;29;20036;-82
2022/04/13 01:08:13;;;;;;;17.92;6.28;;;;;;;13.20;86.85;101191.25;4941142;29;20070;-82
2022/04/13 01:10:45;;;;;;;19.38;6.88;;;;;;;13.16;87.21;101200.34;4928702;28;20114;-82
2022/04/13 01:13:15;;;;;;;25.15;7.13;;;;;;;13.15;87.31;101206.59;4930351;29;20523;-82
2022/04/13 01:15:42;;;;;;;17.70;6.18;;;;;;;13.15;87.58;101205.75;4948630;28;20047;-82
2022/04/13 01:18:07;;;;;;;16.30;6.50;;;;;;;13.16;87.61;101203.00;4946581;28;20027;-82
2022/04/13 01:20:35;;;;;;;16.55;6.65;;;;;;;13.17;87.84;101207.38;4964706;28;20046;-82
2022/04/13 01:23:01;;;;;;;11.73;6.43;;;;;;;13.16;88.11;101205.66;4955616;28;20430;-83
2022/04/13 01:25:28;;;;;;;17.23;6.93;;;;;;;13.14;88.21;101196.88;4933630;28;20058;-82
2022/04/13 01:27:54;;;;;;;17.15;6.50;;;;;;;13.09;88.83;101205.09;4967782;28;20490;-82
2022/04/13 01:30:23;;;;;;;15.50;6.40;;;;;;;13.08;89.17;101197.19;4934721;28;20034;-82
2022/04/13 01:32:50;;;;;;;14.68;6.47;;;;;;;13.08;89.46;101205.16;4950948;28;20031;-82
2022/04/13 01:35:15;;;;;;;15.38;6.85;;;;;;;13.09;89.71;101201.56;4954186;28;20117;-81
2022/04/13 01:37:41;;;;;;;16.38;7.07;;;;;;;13.09;90.24;101205.09;4966404;28;20109;-82
2022/04/13 01:40:07;;;;;;;16.60;7.07;;;;;;;13.09;90.43;101210.41;4944065;28;20150;-82
2022/04/13 01:42:32;;;;;;;12.48;7.05;;;;;;;13.08;90.53;101207.81;4966379;28;20031;-82
2022/04/13 01:44:57;;;;;;;20.35;7.38;;;;;;;13.03;90.46;101210.72;4932823;28;20078;-82
2022/04/13 01:47:23;;;;;;;16.10;7.75;;;;;;;12.98;90.45;101215.41;4949216;28;20035;-82
2022/04/13 01:49:48;;;;;;;21.08;7.68;;;;;;;12.92;91.14;101227.19;4968897;28;20158;-83
2022/04/13 01:52:14;;;;;;;13.27;7.32;;;;;;;12.90;91.36;101229.06;4949303;28;20031;-83
2022/04/13 01:54:39;;;;;;;16.42;7.88;;;;;;;12.87;91.64;101215.06;4953483;28;20376;-83
2022/04/13 01:57:05;;;;;;;14.32;7.50;;;;;;;12.83;91.66;101226.78;4967887;28;20063;-83
2022/04/13 01:59:30;;;;;;;21.27;8.23;;;;;;;12.80;92.29;101225.13;4966440;28;20045;-83
2022/04/13 02:01:56;;;;;;;23.15;8.77;;;;;;;12.79;92.20;101212.78;4953818;28;20769;-82
2022/04/13 02:04:24;;;;;;;20.75;8.18;;;;;;;12.76;92.77;101216.44;4935821;28;20042;-82
2022/04/13 02:06:50;;;;;;;15.65;8.05;;;;;;;12.73;92.86;101224.53;4964026;28;20723;-82
2022/04/13 02:09:17;;;;;;;16.95;8.10;;;;;;;12.69;93.22;101225.63;4917134;28;20045;-80
2022/04/13 02:11:43;;;;;;;18.50;8.38;;;;;;;12.66;93.35;101223.13;4952093;28;20023;-83
2022/04/13 02:14:09;;;;;;;19.83;8.73;;;;;;;12.62;94.28;101222.41;4965409;28;20474;-83
2022/04/13 02:16:35;;;;;;;20.73;8.82;;;;;;;12.62;94.01;101234.81;4951629;28;20035;-83
2022/04/13 02:19:01;;;;;;;19.05;8.38;;;;;;;12.61;94.62;101235.78;4963507;28;20037;-83
2022/04/13 02:21:27;;;;;;;15.27;7.70;;;;;;;12.62;94.63;101235.69;4965967;28;20039;-82
2022/04/13 02:23:52;;;;;;;14.40;8.35;;;;;;;12.67;94.79;101242.59;4949736;28;20061;-82
2022/04/13 02:26:19;;;;;;;21.38;8.88;;;;;;;12.66;94.84;101246.16;4951720;28;20450;-81
2022/04/13 02:28:45;;;;;;;20.38;9.00;;;;;;;12.65;95.19;101245.31;4966759;28;20035;-81
2022/04/13 02:31:11;;;;;;;18.50;8.27;;;;;;;12.67;95.44;101247.91;4967605;28;20058;-82
2022/04/13 02:33:37;;;;;;;16.90;8.30;;;;;;;12.70;95.55;101250.41;4951175;28;20494;-82
2022/04/13 02:36:02;;;;;;;18.48;9.18;;;;;;;12.72;95.75;101243.22;4931922;28;20042;-83
2022/04/13 02:38:28;;;;;;;17.08;8.18;;;;;;;12.69;95.83;101238.91;4932591;28;20034;-83
2022/04/13 02:40:53;;;;;;;17.40;8.68;;;;;;;12.64;96.18;101243.59;4950619;28;20042;-83
2022/04/13 02:43:19;;;;;;;20.05;8.75;;;;;;;12.60;96.38;101234.03;4966840;28;20467;-84
2022/04/13 02:45:44;;;;;;;14.57;8.52;;;;;;;12.56;97.14;101233.31;4966812;28;20042;-83
2022/04/13 02:48:10;;;;;;;17.73;8.55;;;;;;;12.55;97.24;101241.38;4949483;28;20035;-83
2022/04/13 02:50:35;;;;;;;20.25;8.50;;;;;;;12.55;97.50;101238.72;4945553;28;20039;-83
2022/04/13 02:53:01;;;;;;;16.33;8.48;;;;;;;12.52;97.56;101239.72;4968082;28;20452;-82
2022/04/13 02:55:26;;;;;;;20.13;8.73;;;;;;;12.50;97.81;101238.06;4967396;28;20077;-83
2022/04/13 02:57:52;;;;;;;17.58;8.65;;;;;;;12.48;98.66;101235.50;4948854;28;20030;-83
2022/04/13 03:00:18;;;;;;;18.55;8.50;;;;;;;12.49;98.40;101236.34;4968095;28;20388;-83
2022/04/13 03:02:44;;;;;;;19.45;9.02;;;;;;;12.49;98.69;101234.53;4934768;28;20042;-82
2022/04/13 03:05:10;;;;;;;18.02;8.95;;;;;;;12.49;98.51;101246.97;4963533;28;20058;-83
2022/04/13 03:07:36;;;;;;;16.67;8.38;;;;;;;12.46;98.81;101254.13;4969134;28;20058;-83
2022/04/13 03:10:03;;;;;;;18.05;8.90;;;;;;;12.47;99.15;101262.97;4966635;28;20030;-83
2022/04/13 03:12:29;;;;;;;18.10;9.68;;;;;;;12.49;99.29;101257.59;4966211;28;20080;-82
2022/04/13 03:14:55;;;;;;;19.50;9.63;;;;;;;12.48;99.50;101267.38;4952274;28;20035;-83
2022/04/13 03:17:20;;;;;;;17.30;8.73;;;;;;;12.50;99.11;101268.13;4967087;28;20054;-82
2022/04/13 03:19:45;;;;;;;17.45;9.02;;;;;;;12.55;99.13;101271.44;4946888;28;20127;-83
2022/04/13 03:22:11;;;;;;;19.45;9.27;;;;;;;12.53;99.32;101265.34;4932451;28;20035;-83
2022/04/13 03:24:36;;;;;;;20.08;9.52;;;;;;;12.54;99.18;101260.91;4952245;28;20049;-83
2022/04/13 03:27:02;;;;;;;19.88;9.93;;;;;;;12.56;99.35;101267.00;4970537;28;20045;-83
2022/04/13 03:29:28;;;;;;;17.63;9.40;;;;;;;12.60;99.44;101282.72;4972404;28;20023;-82
2022/04/13 03:31:53;;;;;;;17.13;8.90;;;;;;;12.61;99.24;101280.94;4972471;28;20031;-82
2022/04/13 03:34:21;;;;;;;24.08;9.82;;;;;;;12.60;99.37;101290.69;4972288;28;20031;-82
2022/04/13 03:36:48;;;;;;;19.75;9.23;;;;;;;12.56;99.52;101286.44;4952496;29;20130;-82
2022/04/13 03:39:14;;;;;;;17.13;9.60;;;;;;;12.56;99.62;101289.09;4954133;29;20028;-81
2022/04/13 03:41:40;;;;;;;16.13;9.30;;;;;;;12.57;99.73;101277.56;4939520;29;20043;-81
2022/04/13 03:44:06;;;;;;;14.50;8.52;;;;;;;12.59;99.93;101294.28;4940705;29;20035;-83
2022/04/13 03:46:32;;;;;;;16.45;9.15;;;;;;;12.57;99.99;101293.50;4953014;28;20046;-83
2022/04/13 03:48:57;;;;;;;19.80;9.80;;;;;;;12.57;99.95;101288.19;4977059;28;20023;-83
2022/04/13 03:51:23;;;;;;;17.38;8.93;;;;;;;12.60;100.00;101295.16;4943744;28;20027;-83
2022/04/13 03:53:49;;;;;;;17.80;9.65;;;;;;;12.58;100.00;101294.34;4975866;28;20058;-83
2022/04/13 03:56:15;;;;;;;19.20;10.25;;;;;;;12.58;100.00;101297.88;4976876;28;20034;-83
2022/04/13 03:58:40;;;;;;;12.95;8.88;;;;;;;12.63;100.00;101297.66;4940287;29;20035;-83
2022/04/13 04:01:10;;;;;;;18.15;9.30;;;;;;;12.56;100.00;101291.75;4956193;29;20106;-83
2022/04/13 04:03:36;;;;;;;18.25;9.45;;;;;;;12.59;100.00;101296.94;4956607;29;20037;-83
2022/04/13 04:06:03;;;;;;;14.75;8.77;;;;;;;12.58;100.00;101305.84;4958386;28;20093;-82
2022/04/13 04:08:29;;;;;;;18.33;10.07;;;;;;;12.58;100.00;101307.63;4943212;28;20146;-83
2022/04/13 04:10:55;;;;;;;19.48;10.00;;;;;;;12.54;100.00;101309.56;4943779;28;20166;-82
2022/04/13 04:13:21;;;;;;;17.85;9.38;;;;;;;12.46;100.00;101303.75;4959445;28;20117;-83
2022/04/13 04:15:47;;;;;;;22.80;10.35;;;;;;;12.39;100.00;101316.44;4959613;28;20022;-82
2022/04/13 04:18:12;;;;;;;21.70;10.18;;;;;;;12.33;100.00;101310.53;4958859;28;20077;-82
2022/04/13 04:20:38;;;;;;;17.38;10.38;;;;;;;12.24;100.00;101314.47;4943472;28;20166;-82
2022/04/13 04:23:03;;;;;;;18.45;10.48;;;;;;;12.15;100.00;101310.44;4959524;28;20442;-82
2022/04/13 04:25:29;;;;;;;18.02;9.77;;;;;;;12.09;100.00;101321.31;4944951;29;20043;-82
2022/04/13 04:27:54;;;;;;;15.80;9.75;;;;;;;12.06;100.00;101324.09;4964194;28;20058;-82
2022/04/13 04:30:20;;;;;;;17.92;9.75;;;;;;;12.04;100.00;101332.13;4957238;28;20034;-82
2022/04/13 04:32:45;;;;;;;18.20;9.82;;;;;;;11.98;100.00;101339.50;4973119;28;20049;-82
2022/04/13 04:35:11;;;;;;;20.27;9.75;;;;;;;11.91;100.00;101336.22;4945708;28;20038;-82
2022/04/13 04:37:37;;;;;;;16.35;9.48;;;;;;;11.86;100.00;101346.16;4943168;28;20490;-82
2022/04/13 04:40:03;;;;;;;19.45;9.80;;;;;;;11.82;100.00;101348.06;4928893;28;20041;-82
2022/04/13 04:42:28;;;;;;;18.27;10.27;;;;;;;11.76;100.00;101354.47;4960274;28;20031;-82
2022/04/13 04:44:58;;;;;;;17.52;10.23;;;;;;;11.69;100.00;101354.81;4970552;28;20031;-82
2022/04/13 04:47:24;;;;;;;18.92;9.88;;;;;;;11.61;100.00;101358.66;4968631;28;20025;-82
2022/04/13 04:49:50;;;;;;;18.52;10.20;;;;;;;11.60;100.00;101361.38;4973052;28;20538;-82
2022/04/13 04:52:16;;;;;;;17.30;10.57;;;;;;;11.54;100.00;101365.13;4958189;28;20058;-82
2022/04/13 04:54:41;;;;;;;18.70;9.52;;;;;;;11.47;100.00;101364.50;4946316;28;20038;-82
2022/04/13 04:57:08;;;;;;;22.38;9.98;;;;;;;11.48;100.00;101368.91;4957598;28;20467;-81
2022/04/13 04:59:34;;;;;;;18.58;9.80;;;;;;;11.48;100.00;101383.94;4957031;28;20042;-82
2022/04/13 05:02:01;;;;;;;21.02;10.45;;;;;;;11.45;100.00;101376.97;4960773;28;20027;-82
2022/04/13 05:04:26;;;;;;;21.63;9.35;;;;;;;11.44;100.00;101380.53;4922811;28;20499;-82
2022/04/13 05:06:52;;;;;;;19.88;11.07;;;;;;;11.43;100.00;101386.78;4938760;28;20116;-82
2022/04/13 05:09:18;;;;;;;18.13;9.75;;;;;;;11.44;100.00;101385.84;4967834;28;20039;-82
2022/04/13 05:11:44;;;;;;;17.40;10.23;;;;;;;11.45;100.00;101384.91;4970675;28;20047;-82
2022/04/13 05:14:09;;;;;;;23.17;10.13;;;;;;;11.44;100.00;101377.88;4955260;29;20384;-82
2022/04/13 05:16:35;;;;;;;19.98;10.73;;;;;;;11.43;100.00;101389.44;4974647;28;20410;-82
2022/04/13 05:19:01;;;;;;;21.08;10.48;;;;;;;11.44;100.00;101382.34;4926747;28;20117;-82
2022/04/13 05:21:27;;;;;;;19.80;9.55;;;;;;;11.45;100.00;101390.22;4975344;28;20038;-82
2022/04/13 05:23:53;;;;;;;22.83;9.80;;;;;;;11.49;100.00;101388.31;4975136;28;20037;-82
2022/04/13 05:26:18;;;;;;;16.77;9.77;;;;;;;11.54;100.00;101393.44;4973800;28;20121;-82
2022/04/13 05:28:50;;;;;;;21.02;10.07;;;;;;;11.57;100.00;101396.84;4942114;28;20398;-81
2022/04/13 05:31:15;;;;;;;;;;;;;;;11.61;100.00;101408.16;4975912;28;20447;-82
2022/04/13 05:33:41;;;;;;;17.13;9.77;;;;;;;11.65;100.00;101401.84;4958114;28;20009;-82
2022/04/13 05:36:07;;;;;;;20.83;9.98;;;;;;;11.68;100.00;101404.34;4957863;28;20038;-81
2022/04/13 05:38:34;;;;;;;22.00;11.00;;;;;;;11.73;100.00;101410.34;4942029;28;20516;-81
2022/04/13 05:40:59;;;;;;;18.05;10.18;;;;;;;11.80;100.00;101409.19;4957524;28;20053;-82
2022/04/13 05:43:25;;;;;;;19.20;10.05;;;;;;;11.86;100.00;101402.75;4938707;29;20547;-82
2022/04/13 05:45:50;;;;;;;18.95;9.80;;;;;;;11.91;100.00;101414.03;4943302;28;20066;-83
2022/04/13 05:48:16;;;;;;;19.38;10.65;;;;;;;11.94;100.00;101421.88;4957923;28;20034;-83
2022/04/13 05:50:41;;;;;;;25.00;12.85;;;;;;;11.97;100.00;101420.91;4972449;28;20375;-82
2022/04/13 05:53:07;;;;;;;19.40;11.02;;;;;;;12.01;100.00;101430.47;4941659;28;20038;-82
2022/04/13 05:55:32;;;;;;;20.67;11.60;;;;;;;12.03;100.00;101433.91;4973972;28;20035;-82
2022/04/13 05:57:58;;;;;;;23.23;11.35;;;;;;;12.06;100.00;101431.16;4957576;28;20387;-82
2022/04/13 06:00:24;;;;;;;19.65;10.93;;;;;;;12.15;100.00;101435.22;4941330;28;20027;-81
2022/04/13 06:02:49;;;;;;;20.02;10.63;;;;;;;12.25;100.00;101438.31;4956757;28;20041;-84
2022/04/13 06:05:15;;;;;;;21.33;11.13;;;;;;;12.31;100.00;101448.69;4957024;28;20030;-81
2022/04/13 06:07:42;;;;;;;21.17;10.90;;;;;;;12.43;100.00;101442.00;4966333;29;20078;-82
2022/04/13 06:10:08;;;;;;;18.52;10.68;;;;;;;12.52;100.00;101446.03;4954321;28;20020;-83
2022/04/13 06:12:34;;;;;;;21.58;10.48;;;;;;;12.59;100.00;101450.16;4957756;28;20402;-82
2022/04/13 06:15:05;;;;;;;22.33;11.05;;;;;;;12.60;100.00;101458.06;4967688;28;20090;-82
2022/04/13 06:17:31;;;;;;;26.50;11.43;;;;;;;12.68;100.00;101455.06;4961694;28;20022;-82
2022/04/13 06:19:56;;;;;;;18.13;10.57;;;;;;;12.74;100.00;101457.47;4960769;28;20038;-82
2022/04/13 06:22:22;;;;;;;19.23;9.32;;;;;;;12.79;100.00;101459.94;4965519;28;20031;-82
2022/04/13 06:24:51;;;;;;;20.25;10.50;;;;;;;12.81;99.17;101468.69;4956187;28;20034;-81
2022/04/13 06:27:19;;;;;;;20.70;9.63;;;;;;;12.87;99.39;101462.25;4976707;28;20054;-86
2022/04/13 06:29:47;;;;;;;21.20;10.20;;;;;;;12.83;99.13;101468.63;4946791;29;20032;-87
2022/04/13 06:32:15;;;;;;;23.90;9.90;;;;;;;12.91;99.17;101471.81;4955416;28;20031;-88
2022/04/13 06:34:41;;;;;;;17.77;8.57;;;;;;;12.98;98.80;101480.38;4937835;29;20122;-88
2022/04/13 06:37:06;;;;;;;16.95;8.45;;;;;;;12.94;97.84;101487.59;4922039;29;20103;-89
2022/04/13 06:39:32;;;;;;;14.02;7.85;;;;;;;12.94;97.82;101485.84;4958216;28;20027;-89
2022/04/13 06:41:57;;;;;;;23.45;8.35;;;;;;;12.93;97.25;101494.72;4910147;29;20038;-88
2022/04/13 06:44:22;;;;;;;14.93;7.53;;;;;;;12.98;97.17;101501.63;4939300;29;20032;-89
2022/04/13 06:46:48;;;;;;;15.52;8.27;;;;;;;13.05;97.13;101508.41;4938346;29;20031;-88
2022/04/13 06:49:13;;;;;;;16.42;7.93;;;;;;;13.13;96.56;101516.03;4938801;29;20027;-87
2022/04/13 06:51:39;;;;;;;18.45;8.00;;;;;;;13.21;95.97;101516.56;4940383;29;20047;-87
2022/04/13 06:54:04;;;;;;;16.25;7.22;;;;;;;13.29;95.98;101509.09;4959984;28;20579;-88
2022/04/13 06:56:32;;;;;;;16.08;6.90;;;;;;;13.30;94.83;101518.81;4944237;29;20030;-89
2022/04/13 06:58:59;;;;;;;16.05;7.45;;;;;;;13.30;94.63;101528.56;4946516;29;20032;-88
2022/04/13 07:01:24;;;;;;;15.20;7.35;;;;;;;13.37;94.20;101528.25;4929520;29;20062;-87
2022/04/13 07:03:50;;;;;;;13.50;7.10;;;;;;;13.48;94.00;101530.44;4938227;29;20065;-89
2022/04/13 07:06:15;;;;;;;17.98;7.38;;;;;;;13.59;93.77;101521.94;4938105;29;20491;-88
2022/04/13 07:08:41;;;;;;;18.90;7.70;;;;;;;13.80;92.98;101524.53;4954809;28;20620;-88
2022/04/13 07:11:06;;;;;;;15.45;7.53;;;;;;;13.96;91.90;101532.66;4955275;28;20428;-91
2022/04/13 07:13:32;;;;;;;16.52;7.45;;;;;;;13.99;91.18;101535.16;4937658;29;20110;-88
2022/04/13 07:15:58;;;;;;;18.30;8.05;;;;;;;14.04;91.23;101538.47;4939409;29;20027;-88
2022/04/13 07:18:23;;;;;;;17.48;6.65;;;;;;;14.08;90.10;101543.59;4941515;29;20031;-87
2022/04/13 07:20:48;;;;;;;13.15;7.18;;;;;;;13.95;89.72;101538.91;4936859;28;20398;-88
2022/04/13 07:23:14;;;;;;;14.80;6.90;;;;;;;13.76;90.48;101538.00;4960514;28;20055;-87
2022/04/13 07:25:40;;;;;;;14.77;7.22;;;;;;;13.79;91.08;101539.66;4944167;28;20402;-87
2022/04/13 07:28:05;;;;;;;19.05;7.57;;;;;;;13.79;91.06;101542.31;4955757;28;20062;-90
2022/04/13 07:30:31;;;;;;;23.00;8.00;;;;;;;13.83;91.11;101543.91;4925921;29;20031;-89
2022/04/13 07:33:03;;;;;;;14.52;7.60;;;;;;;13.91;90.79;101548.84;4925220;29;20046;-90
2022/04/13 07:35:30;;;;;;;15.52;7.68;;;;;;;14.02;90.07;101556.34;4957094;28;20035;-90
2022/04/13 07:37:56;;;;;;;16.88;7.05;;;;;;;14.12;89.83;101562.94;4942593;29;20031;-89
2022/04/13 07:40:22;;;;;;;22.50;9.23;;;;;;;14.34;89.52;101564.56;4936224;29;20034;-90
2022/04/13 07:42:48;;;;;;;15.23;7.38;;;;;;;14.45;88.52;101574.69;4930747;29;20114;-89
2022/04/13 07:45:13;;;;;;;16.83;7.45;;;;;;;14.49;87.78;101581.59;4922249;29;20117;-90
2022/04/13 07:47:39;;;;;;;16.00;7.38;;;;;;;14.46;87.20;101574.59;4938061;29;20053;-89
2022/04/13 07:50:11;;;;;;;17.48;9.20;;;;;;;14.38;87.71;101582.13;4939309;29;20036;-89
2022/04/13 07:52:37;;;;;;;18.42;8.18;;;;;;;14.21;89.31;101573.16;4938826;29;20028;-89
2022/04/13 07:55:04;;;;;;;23.13;10.15;;;;;;;14.20;89.13;101578.56;4921934;29;20059;-89
2022/04/13 07:57:29;;;;;;;13.45;7.75;;;;;;;14.09;88.92;101589.72;4944362;28;20027;-89
2022/04/13 07:59:55;;;;;;;21.08;8.20;;;;;;;14.13;89.14;101578.00;4943830;28;20034;-90
2022/04/13 08:02:21;;;;;;;17.75;7.63;;;;;;;14.20;88.84;101582.06;4959978;28;20049;-89
2022/04/13 08:04:47;;;;;;;16.42;8.25;;;;;;;14.29;88.72;101585.25;4975980;28;20483;-89
2022/04/13 08:07:14;;;;;;;15.82;7.07;;;;;;;14.40;88.46;101593.59;4943667;29;20042;-88
2022/04/13 08:09:40;;;;;;;18.15;8.50;;;;;;;14.51;87.14;101577.06;4940968;28;20505;-89
2022/04/13 08:12:06;;;;;;;19.40;7.78;;;;;;;14.50;86.96;101578.88;4942354;28;20039;-89
2022/04/13 08:14:31;;;;;;;19.15;7.65;;;;;;;14.52;87.25;101592.97;4955305;29;20023;-84
2022/04/13 08:16:57;;;;;;;20.25;7.25;;;;;;;14.50;86.78;101588.66;4934255;29;20043;-87
2022/04/13 08:19:23;;;;;;;13.48;7.40;;;;;;;14.45;87.02;101588.91;4920423;29;20032;-87
2022/04/13 08:21:49;;;;;;;21.05;8.13;;;;;;;14.49;87.30;101593.13;4921196;29;20543;-88
2022/04/13 08:24:18;;;;;;;18.65;7.60;;;;;;;14.54;86.81;101609.75;4948559;28;20027;-88
2022/04/13 08:26:44;;;;;;;18.42;8.35;;;;;;;14.64;86.57;101610.22;4959277;28;20093;-87
2022/04/13 08:29:10;;;;;;;19.13;7.57;;;;;;;14.62;86.58;101603.19;4974684;28;20046;-87
2022/04/13 08:31:35;;;;;;;17.17;8.48;;;;;;;14.66;87.10;101605.63;4959596;28;20050;-87
2022/04/13 08:34:01;;;;;;;14.88;7.90;;;;;;;14.74;86.48;101618.59;4959196;28;20027;-87
2022/04/13 08:36:26;;;;;;;12.98;7.82;;;;;;;14.67;86.24;101617.19;4943279;28;20469;-87
2022/04/13 08:38:51;;;;;;;19.58;8.25;;;;;;;14.69;86.46;101620.63;4921310;29;20040;-87
2022/04/13 08:41:31;;;;;;;16.75;8.15;;;;;;;14.77;86.13;101621.13;4937181;29;20112;-87
2022/04/13 08:44:15;;;;;;;15.35;7.38;;;;;;;14.85;85.02;101612.72;4952090;28;20137;-88
2022/04/13 08:46:44;;;;;;;18.27;8.00;;;;;;;15.03;85.30;101602.94;4975224;28;20022;-88
2022/04/13 08:49:11;;;;;;;16.80;8.35;;;;;;;15.07;84.51;101607.16;4924249;29;20024;-87
2022/04/13 08:51:39;;;;;;;16.33;8.45;;;;;;;14.96;85.12;101606.84;4920929;29;20031;-88
2022/04/13 08:54:25;;;;;;;18.02;9.10;;;;;;;14.97;85.66;101612.09;4947619;28;20026;-88
2022/04/13 08:56:54;;;;;;;18.23;9.32;;;;;;;14.95;85.91;101608.66;4963988;28;20037;-88
2022/04/13 09:00:05;;;;;;;21.45;8.48;;;;;;;14.90;85.91;101618.69;4952217;28;20038;-87
2022/04/13 09:02:58;;;;;;;14.55;8.05;;;;;;;14.83;85.97;101623.44;4936198;28;20074;-87
2022/04/13 09:05:25;;;;;;;16.42;7.70;;;;;;;14.80;85.23;101628.09;4974201;28;20100;-87
2022/04/13 09:08:21;;;;;;;12.50;6.90;;;;;;;14.88;85.01;101631.22;4958242;28;20055;-87
2022/04/13 09:10:48;;;;;;;12.48;7.35;;;;;;;14.96;85.72;101637.06;4918131;28;20046;-88
2022/04/13 09:13:16;;;;;;;17.40;8.05;;;;;;;15.01;85.53;101640.34;4919234;29;20027;-87
2022/04/13 09:15:43;;;;;;;14.55;7.65;;;;;;;15.04;85.62;101652.66;4943754;28;20031;-87
2022/04/13 09:18:09;;;;;;;14.15;7.80;;;;;;;15.13;85.81;101662.88;4915045;28;20122;-87
2022/04/13 09:20:36;;;;;;;14.02;8.05;;;;;;;15.17;84.76;101669.75;4957059;28;20062;-88
2022/04/13 09:23:02;;;;;;;16.67;8.43;;;;;;;15.19;84.79;101659.88;4923601;29;20062;-87
2022/04/13 09:25:30;;;;;;;20.58;8.40;;;;;;;15.18;85.30;101671.50;4954561;28;20042;-85
2022/04/13 09:27:58;;;;;;;17.90;8.18;;;;;;;15.29;84.70;101668.25;4938962;29;20070;-86
2022/04/13 09:30:24;;;;;;;16.00;7.85;;;;;;;15.33;84.77;101668.97;4939070;28;20027;-87
2022/04/13 09:32:50;;;;;;;18.35;8.23;;;;;;;15.40;83.96;101667.72;4938961;29;20046;-86
2022/04/13 09:35:17;;;;;;;17.27;8.20;;;;;;;15.30;83.19;101663.81;4938882;29;20031;-86
2022/04/13 09:37:44;;;;;;;16.70;7.85;;;;;;;15.22;83.89;101673.06;4938758;29;20167;-86
2022/04/13 09:40:10;;;;;;;16.40;7.72;;;;;;;15.22;83.95;101675.72;4963570;28;20023;-87
2022/04/13 09:42:36;;;;;;;18.55;8.10;;;;;;;15.15;84.08;101686.78;4927399;28;20034;-87
2022/04/13 09:45:03;;;;;;;21.15;9.55;;;;;;;15.08;85.22;101691.56;4958195;28;20066;-87
2022/04/13 09:47:31;;;;;;;23.45;9.40;;;;;;;15.04;85.04;101696.19;4959307;28;20038;-88
2022/04/13 09:49:57;;;;;;;16.83;7.40;;;;;;;14.98;85.08;101698.31;4941602;28;20024;-87
2022/04/13 09:52:43;;;;;;;16.48;7.40;;;;;;;14.89;85.70;101692.47;4953382;29;20031;-87
2022/04/13 09:55:09;;;;;;;14.27;6.90;;;;;;;14.67;85.96;101692.69;4954454;29;20086;-87
2022/04/13 09:57:35;;;;;;;15.35;7.18;;;;;;;14.75;86.73;101694.97;4938563;29;20035;-87
2022/04/13 10:00:05;;;;;;;18.73;7.68;;;;;;;14.80;86.31;101697.44;4939591;28;20057;-88
2022/04/13 10:02:39;;;;;;;14.23;7.40;;;;;;;14.80;86.76;101697.44;4935589;29;20053;-87
2022/04/13 10:05:06;;;;;;;15.63;7.50;;;;;;;14.73;87.19;101694.16;4948871;28;20023;-87
2022/04/13 10:07:32;;;;;;;19.33;7.93;;;;;;;14.78;87.78;101704.63;4956798;28;20141;-88
2022/04/13 10:09:58;;;;;;;24.23;8.73;;;;;;;14.79;87.02;101707.22;4945700;28;20031;-87
2022/04/13 10:12:23;;;;;;;23.38;10.07;;;;;;;14.78;86.97;101709.94;4956089;28;20037;-87
2022/04/13 10:14:49;;;;;;;23.27;10.15;;;;;;;14.73;87.36;101712.81;4938481;29;20028;-88
2022/04/13 10:17:16;;;;;;;22.30;9.23;;;;;;;14.71;87.44;101715.56;4940119;28;20027;-88
2022/04/13 10:19:57;;;;;;;21.90;9.68;;;;;;;14.69;87.50;101714.81;4917858;29;20019;-88
2022/04/13 10:22:23;;;;;;;19.58;8.60;;;;;;;14.77;87.80;101719.78;4923652;29;20114;-88
2022/04/13 10:24:49;;;;;;;19.40;9.48;;;;;;;14.76;87.05;101712.69;4929708;29;20145;-88
2022/04/13 10:27:17;;;;;;;44.88;16.33;;;;;;;14.65;86.75;101704.34;4970349;28;20053;-87
2022/04/13 10:29:52;;;;;;;35.97;13.45;;;;;;;14.62;87.06;101718.66;4938690;29;20423;-87
2022/04/13 10:32:25;;;;;;;13.05;6.95;;;;;;;14.68;86.78;101720.19;4954176;29;20767;-87
2022/04/13 10:34:55;;;;;;;16.35;7.43;;;;;;;14.71;86.04;101712.91;4937904;29;20066;-87
2022/04/13 10:37:24;;;;;;;17.35;8.30;;;;;;;14.78;85.42;101710.81;4938017;29;20039;-86
2022/04/13 10:39:52;;;;;;;15.05;7.30;;;;;;;14.91;85.17;101719.94;4937428;29;20027;-87
2022/04/13 10:42:19;;;;;;;15.35;6.93;;;;;;;15.06;84.45;101713.00;4954396;29;20043;-87
2022/04/13 10:44:58;;;;;;;13.00;6.80;;;;;;;15.29;82.76;101721.63;4934517;29;20032;-86
2022/04/13 10:47:38;;;;;;;15.23;7.20;;;;;;;15.51;81.88;101723.19;4969359;28;20031;-87
2022/04/13 10:50:06;;;;;;;25.80;9.27;;;;;;;15.63;81.29;101717.25;4952837;28;20015;-87
2022/04/13 10:52:58;;;;;;;21.55;8.55;;;;;;;15.74;81.25;101724.66;4955304;28;20458;-86
2022/04/13 10:55:24;;;;;;;12.70;6.72;;;;;;;15.80;80.30;101731.50;4954148;29;20496;-87
2022/04/13 10:57:52;;;;;;;26.83;11.55;;;;;;;16.06;80.63;101735.47;4961476;29;20030;-88
2022/04/13 11:00:20;;;;;;;15.95;7.88;;;;;;;16.29;79.18;101730.72;4954737;28;20023;-88
2022/04/13 11:02:58;;;;;;;19.77;9.10;;;;;;;16.50;77.36;101720.66;4954071;29;20065;-89
2022/04/13 11:05:28;;;;;;;13.68;6.20;;;;;;;16.46;76.27;101725.31;4958805;29;20031;-88
2022/04/13 11:08:21;;;;;;;14.38;6.00;;;;;;;16.43;75.30;101724.59;4974872;28;20419;-87
2022/04/13 11:10:48;;;;;;;15.27;6.25;;;;;;;16.43;76.57;101722.78;4963583;28;20031;-89
2022/04/13 11:13:15;;;;;;;17.45;5.93;;;;;;;16.46;75.98;101727.09;4957410;28;20033;-89
2022/04/13 11:15:46;;;;;;;17.27;7.05;;;;;;;16.63;75.54;101726.16;4955835;28;20105;-87